Time;durP1;ratioP1;P1;durP2;ratioP2;P2;SDS_P1;SDS_P2;PMS_P1;PMS_P2;Temp;Humidity;BMP_temperature;BMP_pressure;BME280_temperature;BME280_humidity;BME280_pressure;Samples;Min_cycle;Max_cycle;Signal;HPM_P1;HPM_P2
2024/01/09 11:18:16;;;;;;;8.95;4.95;;;-2.00;43.30;;;;;;5242327;22;20255;-64
2024/01/09 11:20:43;;;;;;;12.40;5.85;;;-1.90;43.20;;;;;;5073811;28;20184;-65
2024/01/09 11:23:11;;;;;;;5.53;3.10;;;-1.90;43.20;;;;;;5073725;28;20659;-65
2024/01/09 11:25:38;;;;;;;11.20;5.22;;;-1.90;43.20;;;;;;5073648;28;20225;-65
2024/01/09 11:28:07;;;;;;;12.63;5.68;;;-1.80;43.20;;;;;;5073052;28;20196;-66
2024/01/09 11:30:34;;;;;;;12.48;6.30;;;-1.80;40.40;;;;;;5073039;28;20224;-67
2024/01/09 11:33:32;;;;;;;12.52;5.82;;;-1.70;43.00;;;;;;5073523;28;20200;-67
2024/01/09 11:36:04;;;;;;;7.78;4.47;;;-1.70;39.20;;;;;;5074412;28;20181;-67
2024/01/09 11:38:31;;;;;;;9.57;4.25;;;-1.70;37.80;;;;;;5072756;28;20226;-67
2024/01/09 11:41:03;;;;;;;6.60;4.32;;;-1.50;35.00;;;;;;5073808;28;20191;-67
2024/01/09 11:43:30;;;;;;;11.05;5.30;;;-1.30;35.10;;;;;;5073766;28;20218;-67
2024/01/09 11:45:57;;;;;;;9.57;4.20;;;-0.70;35.60;;;;;;5073724;28;20295;-67
2024/01/09 11:48:24;;;;;;;10.03;5.70;;;-0.20;35.60;;;;;;5072913;28;20456;-68
2024/01/09 11:50:52;;;;;;;16.30;5.20;;;0.30;28.60;;;;;;5073727;28;20788;-68
2024/01/09 11:53:19;;;;;;;16.30;7.13;;;0.90;28.60;;;;;;5086504;22;20512;-59
2024/01/09 11:55:46;;;;;;;10.53;4.20;;;1.10;21.80;;;;;;5050506;28;20456;-59
2024/01/09 11:58:13;;;;;;;13.47;5.40;;;1.40;22.00;;;;;;5051785;28;20458;-59
2024/01/09 12:00:40;;;;;;;10.80;5.87;;;1.60;22.10;;;;;;5051992;28;20478;-59
2024/01/09 12:03:06;;;;;;;9.97;5.70;;;1.80;22.30;;;;;;5052308;28;20470;-59
2024/01/09 12:05:34;;;;;;;11.83;5.90;;;1.90;22.30;;;;;;5052100;28;20454;-59
2024/01/09 12:08:03;;;;;;;10.83;5.57;;;2.40;16.70;;;;;;5052085;28;20448;-59
2024/01/09 12:10:30;;;;;;;10.73;5.50;;;2.50;15.60;;;;;;5051466;28;20458;-59
2024/01/09 12:13:02;;;;;;;8.27;4.10;;;2.20;15.10;;;;;;5051872;28;20455;-59
2024/01/09 12:15:29;;;;;;;9.17;3.77;;;2.30;13.30;;;;;;5052018;28;20949;-59
2024/01/09 12:17:57;;;;;;;10.30;4.70;;;2.10;11.00;;;;;;5051491;28;20959;-59
2024/01/09 12:20:24;;;;;;;10.47;5.17;;;1.70;12.50;;;;;;5051699;28;20827;-59
2024/01/09 12:22:51;;;;;;;8.43;4.70;;;1.40;13.30;;;;;;5051677;28;20513;-59
2024/01/09 12:25:19;;;;;;;8.87;4.53;;;1.30;14.40;;;;;;5051917;28;20482;-59
2024/01/09 12:27:46;;;;;;;10.77;4.60;;;1.20;10.90;;;;;;5051553;28;20454;-59
2024/01/09 12:30:14;;;;;;;12.20;5.10;;;1.50;10.20;;;;;;5051727;28;20447;-59
2024/01/09 12:32:41;;;;;;;13.77;4.67;;;1.00;8.80;;;;;;5051703;28;20447;-59
2024/01/09 12:35:08;;;;;;;8.03;3.17;;;1.10;10.10;;;;;;5051728;28;20466;-59
2024/01/09 12:37:35;;;;;;;11.40;5.50;;;1.20;11.10;;;;;;5050954;28;20447;-59
2024/01/09 12:40:09;;;;;;;14.47;5.50;;;1.30;14.40;;;;;;5050780;28;20474;-59
2024/01/09 12:42:37;;;;;;;14.40;5.53;;;1.60;11.20;;;;;;5053683;28;20446;-59
2024/01/09 12:45:04;;;;;;;12.77;4.50;;;1.90;7.90;;;;;;5055440;28;20478;-59
2024/01/09 12:47:31;;;;;;;7.17;3.00;;;1.60;7.70;;;;;;5054823;28;20960;-59
2024/01/09 12:49:57;;;;;;;11.80;6.10;;;1.50;7.60;;;;;;5055431;28;20477;-59
2024/01/09 12:52:24;;;;;;;11.07;5.27;;;2.10;8.00;;;;;;5055443;28;20451;-59
2024/01/09 12:54:51;;;;;;;9.53;5.30;;;1.90;7.90;;;;;;5035392;28;20436;-59
2024/01/09 12:57:18;;;;;;;11.67;5.43;;;1.50;7.60;;;;;;5034994;28;20612;-59
2024/01/09 12:59:47;;;;;;;8.73;5.00;;;1.60;8.10;;;;;;5034831;28;20448;-59
2024/01/09 13:02:14;;;;;;;9.20;4.80;;;1.50;7.60;;;;;;5035111;28;20468;-59
2024/01/09 13:04:41;;;;;;;12.20;5.30;;;1.40;7.50;;;;;;5034905;28;20502;-59
2024/01/09 13:07:08;;;;;;;8.63;4.47;;;1.30;7.50;;;;;;5034609;28;20456;-59
2024/01/09 13:09:34;;;;;;;11.37;4.83;;;1.50;7.60;;;;;;5034938;28;20456;-59
2024/01/09 13:12:01;;;;;;;8.63;3.40;;;1.70;7.70;;;;;;5035165;28;20460;-59
2024/01/09 13:14:28;;;;;;;9.63;4.27;;;1.40;7.50;;;;;;5034948;28;20490;-59
2024/01/09 13:16:57;;;;;;;10.07;3.83;;;1.00;7.30;;;;;;5034385;28;20451;-59
2024/01/09 13:19:25;;;;;;;10.30;5.60;;;1.20;7.40;;;;;;5034840;28;20489;-59
2024/01/09 13:21:52;;;;;;;7.30;3.47;;;1.30;7.50;;;;;;5034873;28;20452;-59
2024/01/09 13:24:19;;;;;;;7.90;3.70;;;1.50;7.60;;;;;;5034921;28;20451;-59
2024/01/09 13:26:46;;;;;;;9.90;5.20;;;1.30;7.40;;;;;;5034428;28;20450;-59
2024/01/09 13:29:12;;;;;;;8.57;4.00;;;1.50;7.60;;;;;;5034433;28;20458;-59
2024/01/09 13:31:39;;;;;;;8.23;2.93;;;1.40;7.50;;;;;;5034423;28;20455;-59
2024/01/09 13:34:08;;;;;;;12.70;5.37;;;1.30;7.50;;;;;;5034656;28;20839;-59
2024/01/09 13:36:35;;;;;;;6.37;2.53;;;1.50;7.60;;;;;;5034181;28;20502;-59
2024/01/09 13:39:03;;;;;;;5.70;2.83;;;1.00;7.30;;;;;;5034192;28;20460;-59
2024/01/09 13:41:29;;;;;;;11.47;6.27;;;0.70;7.10;;;;;;5034248;28;20770;-59
2024/01/09 13:43:56;;;;;;;11.87;4.70;;;0.60;11.10;;;;;;5034276;28;20446;-59
2024/01/09 13:46:23;;;;;;;8.10;3.30;;;0.30;10.50;;;;;;5032603;28;20452;-58
2024/01/09 13:48:51;;;;;;;9.77;3.93;;;0.00;13.90;;;;;;5034275;28;20455;-59
2024/01/09 13:51:21;;;;;;;7.90;4.20;;;0.00;13.90;;;;;;5034256;28;20462;-58
2024/01/09 13:53:51;;;;;;;6.43;2.57;;;-0.30;14.40;;;;;;5044746;28;20494;-58
2024/01/09 13:56:18;;;;;;;10.90;4.20;;;-0.30;13.70;;;;;;5053529;28;20455;-58
2024/01/09 13:58:45;;;;;;;7.95;3.65;;;-0.50;15.80;;;;;;5053537;28;20452;-58
2024/01/09 14:01:11;;;;;;;10.85;5.07;;;-0.50;16.20;;;;;;5053789;28;20204;-58
2024/01/09 14:03:40;;;;;;;10.83;5.10;;;-0.60;20.70;;;;;;5054049;28;20202;-58
2024/01/09 14:06:07;;;;;;;6.40;3.90;;;-0.70;20.60;;;;;;5053532;28;20479;-58
2024/01/09 14:08:35;;;;;;;8.10;3.92;;;-0.70;16.80;;;;;;5054062;28;20919;-58
2024/01/09 14:11:02;;;;;;;10.90;5.90;;;-0.70;20.60;;;;;;5052333;28;20209;-58
2024/01/09 14:13:30;;;;;;;11.83;4.37;;;-0.70;20.50;;;;;;5053864;28;20451;-58
2024/01/09 14:15:57;;;;;;;9.33;5.57;;;-0.70;19.40;;;;;;5052442;28;20509;-58
2024/01/09 14:18:25;;;;;;;6.32;3.53;;;-0.80;20.50;;;;;;5053510;28;20447;-58
2024/01/09 14:20:52;;;;;;;8.32;3.75;;;-0.70;20.60;;;;;;5053619;28;20235;-58
2024/01/09 14:23:18;;;;;;;6.47;3.70;;;-0.70;17.50;;;;;;5053481;28;20204;-59
2024/01/09 14:25:47;;;;;;;9.35;4.40;;;-0.70;20.60;;;;;;5052807;28;20189;-58
2024/01/09 14:28:13;;;;;;;6.40;3.20;;;-0.80;20.50;;;;;;5053072;28;20648;-58
2024/01/09 14:30:40;;;;;;;26.75;5.15;;;-0.80;20.50;;;;;;5053016;28;20459;-58
2024/01/09 14:33:07;;;;;;;8.27;3.42;;;-0.80;20.50;;;;;;5053445;28;20204;-58
2024/01/09 14:35:36;;;;;;;10.40;5.80;;;-0.80;20.50;;;;;;5053345;28;20220;-58
2024/01/09 14:38:03;;;;;;;8.68;4.50;;;-0.90;20.50;;;;;;5052654;28;20235;-58
2024/01/09 14:40:30;;;;;;;6.07;3.13;;;-0.80;20.50;;;;;;5052799;28;20200;-58
2024/01/09 14:42:59;;;;;;;9.27;3.92;;;-0.80;20.50;;;;;;5053339;28;20192;-58
2024/01/09 14:45:26;;;;;;;6.28;3.33;;;-0.80;20.50;;;;;;5052768;28;20208;-58
2024/01/09 14:47:52;;;;;;;9.93;3.63;;;-0.80;20.50;;;;;;5052620;28;20207;-58
2024/01/09 14:50:19;;;;;;;10.68;4.05;;;-0.80;20.50;;;;;;5052730;28;20205;-58
2024/01/09 14:52:46;;;;;;;7.70;3.05;;;-0.70;18.10;;;;;;5052482;28;20201;-58
2024/01/09 14:55:13;;;;;;;17.73;5.95;;;-0.70;18.70;;;;;;5052729;28;20228;-58
2024/01/09 14:57:40;;;;;;;8.40;3.67;;;-0.80;18.30;;;;;;5052455;28;20203;-58
2024/01/09 15:00:11;;;;;;;12.43;4.75;;;-0.80;20.40;;;;;;5052522;28;20287;-58
2024/01/09 15:02:38;;;;;;;11.07;4.95;;;-0.80;17.50;;;;;;5052767;28;20202;-58
2024/01/09 15:05:05;;;;;;;11.90;5.85;;;-0.80;20.20;;;;;;5052614;28;20200;-58
2024/01/09 15:07:32;;;;;;;11.13;5.70;;;-1.00;20.30;;;;;;5052049;28;20193;-58
2024/01/09 15:09:59;;;;;;;5.35;2.45;;;-1.10;20.30;;;;;;5052752;28;20203;-58
2024/01/09 15:12:26;;;;;;;11.38;5.03;;;-1.00;20.30;;;;;;5052803;28;20201;-58
2024/01/09 15:14:52;;;;;;;11.35;5.30;;;-1.00;20.30;;;;;;5052128;28;20455;-59
2024/01/09 15:17:20;;;;;;;9.82;4.60;;;-1.00;17.20;;;;;;5052257;28;20452;-59
2024/01/09 15:19:53;;;;;;;9.77;5.47;;;-1.00;16.00;;;;;;5653890;22;20219;-89
2024/01/09 15:22:23;;;;;;;10.05;4.05;;;-0.90;13.40;;;;;;5062906;28;20201;-90
2024/01/09 15:24:55;;;;;;;7.10;3.92;;;-1.00;13.20;;;;;;5052173;28;20204;-90
2024/01/09 15:27:32;;;;;;;8.80;3.50;;;-1.00;13.20;;;;;;5049734;28;20304;-90
2024/01/09 15:43:19;;;;;;;7.65;4.22;;;-1.20;13.10;;;;;;5297167;22;20231;-92
2024/01/09 15:45:47;;;;;;;9.02;3.47;;;-1.30;13.10;;;;;;5033720;28;20290;-93
2024/01/09 15:51:33;;;;;;;10.00;3.72;;;-1.50;16.30;;;;;;5022213;28;20598;-93
2024/01/09 15:55:03;;;;;;;7.07;3.97;;;-1.50;13.10;;;;;;5088290;27;20535;-68
2024/01/09 15:57:30;;;;;;;6.97;2.47;;;-1.50;13.00;;;;;;5084662;28;20254;-68
2024/01/09 15:59:57;;;;;;;6.90;2.78;;;-1.60;14.70;;;;;;5075888;28;20577;-68
2024/01/09 16:02:23;;;;;;;13.38;4.13;;;-1.70;18.00;;;;;;5088999;28;20323;-67
2024/01/09 16:04:50;;;;;;;10.05;4.00;;;-1.70;15.90;;;;;;5087876;28;20221;-65
2024/01/09 16:07:17;;;;;;;16.73;4.82;;;-1.80;18.10;;;;;;5078803;28;20210;-64
2024/01/09 16:09:44;;;;;;;7.13;3.78;;;-1.90;18.80;;;;;;5081688;28;20195;-66
2024/01/09 16:12:14;;;;;;;6.50;3.30;;;-1.90;19.70;;;;;;5071599;28;20261;-66
2024/01/09 16:14:41;;;;;;;12.90;5.45;;;-2.00;19.70;;;;;;5088736;28;20215;-66
2024/01/09 16:17:08;;;;;;;9.45;4.25;;;-2.20;19.60;;;;;;5089298;28;20775;-66
2024/01/09 16:19:35;;;;;;;8.65;4.30;;;-2.20;19.60;;;;;;5072419;28;20249;-66
2024/01/09 16:22:03;;;;;;;10.50;5.07;;;-2.30;19.50;;;;;;5088502;28;20230;-66
2024/01/09 16:24:30;;;;;;;10.52;6.03;;;-2.40;19.40;;;;;;5071716;28;20231;-66
2024/01/09 16:26:57;;;;;;;13.80;5.45;;;-2.70;19.30;;;;;;5072965;28;20587;-66
2024/01/09 16:29:25;;;;;;;12.40;4.40;;;-2.70;19.30;;;;;;5087205;28;20199;-66
2024/01/09 16:31:52;;;;;;;9.23;4.90;;;-2.90;20.40;;;;;;5074790;28;20290;-66
2024/01/09 16:34:19;;;;;;;8.75;4.50;;;-2.80;21.60;;;;;;5086832;28;20598;-66
2024/01/09 16:36:46;;;;;;;10.10;5.47;;;-2.90;22.60;;;;;;5088909;28;20204;-65
2024/01/09 16:39:14;;;;;;;9.18;4.93;;;-3.00;22.90;;;;;;5088883;28;20209;-65
2024/01/09 16:41:43;;;;;;;15.77;5.50;;;-3.00;23.20;;;;;;5088379;28;20204;-65
2024/01/09 16:44:11;;;;;;;8.05;4.57;;;-2.90;22.40;;;;;;5071054;28;20204;-66
2024/01/09 16:46:41;;;;;;;9.48;5.22;;;-3.00;23.70;;;;;;5087964;28;20294;-66
2024/01/09 16:49:08;;;;;;;9.73;5.95;;;-3.00;23.50;;;;;;5080313;28;20201;-66
2024/01/09 16:51:35;;;;;;;9.23;4.63;;;-3.10;24.10;;;;;;5067941;28;20206;-66
2024/01/09 16:54:02;;;;;;;11.52;5.25;;;-3.10;25.60;;;;;;5075313;28;20650;-66
2024/01/09 16:56:29;;;;;;;15.65;5.25;;;-3.20;25.90;;;;;;5087645;28;20195;-66
2024/01/09 16:58:55;;;;;;;9.48;4.55;;;-3.10;24.40;;;;;;5088514;28;20196;-65
2024/01/09 17:01:23;;;;;;;11.93;5.05;;;-3.20;25.90;;;;;;5071714;28;20230;-66
2024/01/09 17:03:51;;;;;;;15.52;5.20;;;-3.60;25.60;;;;;;5088463;28;20580;-66
2024/01/09 17:06:18;;;;;;;8.52;4.60;;;-3.20;25.90;;;;;;5056385;28;20200;-66
2024/01/09 17:08:45;;;;;;;12.10;5.20;;;-3.30;25.80;;;;;;5054695;28;20200;-66
2024/01/09 17:11:13;;;;;;;16.77;5.15;;;-3.30;25.80;;;;;;5071344;28;20235;-65
2024/01/09 17:13:40;;;;;;;9.20;4.68;;;-3.20;26.60;;;;;;5074250;28;20228;-66
2024/01/09 17:16:08;;;;;;;13.45;5.25;;;-3.60;25.70;;;;;;5073568;28;20200;-65
2024/01/09 17:18:36;;;;;;;8.98;4.97;;;-3.40;25.80;;;;;;5061573;28;20228;-66
2024/01/09 17:21:05;;;;;;;10.80;5.13;;;-3.30;25.90;;;;;;5068734;28;20254;-65
2024/01/09 17:23:31;;;;;;;15.18;6.25;;;-3.30;25.90;;;;;;5073416;28;20223;-66
2024/01/09 17:25:59;;;;;;;10.27;4.50;;;-3.30;25.80;;;;;;5073242;28;20377;-65
2024/01/09 17:28:25;;;;;;;12.43;4.47;;;-3.50;26.00;;;;;;5071832;28;20204;-66
2024/01/09 17:30:52;;;;;;;21.20;9.45;;;-3.60;28.10;;;;;;5060348;28;20467;-66
2024/01/09 17:33:19;;;;;;;17.92;7.55;;;-3.30;25.90;;;;;;5073012;28;20220;-66
2024/01/09 17:35:46;;;;;;;15.48;5.50;;;-3.30;25.90;;;;;;5059282;28;20208;-66
2024/01/09 17:38:14;;;;;;;9.63;3.95;;;-3.40;27.90;;;;;;5073661;28;20207;-65
2024/01/09 17:40:41;;;;;;;12.35;5.20;;;-3.70;29.20;;;;;;5074029;28;20200;-65
2024/01/09 17:43:09;;;;;;;7.85;4.47;;;-3.50;28.80;;;;;;5066259;28;20284;-66
2024/01/09 17:45:35;;;;;;;8.57;4.13;;;-3.40;32.20;;;;;;5056775;28;20204;-66
2024/01/09 17:48:02;;;;;;;24.27;4.50;;;-3.40;29.40;;;;;;5074008;28;20200;-66
2024/01/09 17:50:29;;;;;;;8.70;4.78;;;-3.40;29.00;;;;;;5070881;28;20196;-65
2024/01/09 17:52:56;;;;;;;8.07;4.40;;;-3.50;30.00;;;;;;5060311;28;20239;-66
2024/01/09 17:55:24;;;;;;;8.13;3.80;;;-3.50;30.20;;;;;;5073795;28;20220;-66
2024/01/09 17:57:51;;;;;;;13.10;5.38;;;-3.50;29.40;;;;;;5067802;28;20201;-66
2024/01/09 18:00:19;;;;;;;8.70;5.22;;;-3.60;31.00;;;;;;5062070;28;20208;-66
2024/01/09 18:02:46;;;;;;;11.25;5.53;;;-3.60;32.50;;;;;;5058758;28;20222;-66
2024/01/09 18:05:13;;;;;;;11.90;5.45;;;-3.60;32.90;;;;;;5064890;28;20197;-66
2024/01/09 18:07:40;;;;;;;11.32;4.97;;;-3.70;32.90;;;;;;5062058;28;20201;-68
2024/01/09 18:10:08;;;;;;;9.27;5.03;;;-3.90;32.80;;;;;;5061259;28;20229;-65
2024/01/09 18:12:36;;;;;;;11.75;5.00;;;-3.90;32.80;;;;;;5073377;28;20227;-66
2024/01/09 18:15:04;;;;;;;14.10;5.10;;;-4.00;32.70;;;;;;5072968;28;20215;-66
2024/01/09 18:17:32;;;;;;;11.00;5.07;;;-4.00;32.70;;;;;;5071608;28;20228;-66
2024/01/09 18:19:59;;;;;;;10.85;5.85;;;-4.10;32.70;;;;;;5072649;28;20674;-66
2024/01/09 18:22:26;;;;;;;9.85;5.07;;;-4.20;32.50;;;;;;5073226;28;20312;-66
2024/01/09 18:24:53;;;;;;;9.90;5.93;;;-4.20;32.50;;;;;;5073537;28;20200;-65
2024/01/09 18:27:19;;;;;;;10.13;4.88;;;-4.00;32.70;;;;;;5063194;28;20631;-65
2024/01/09 18:29:48;;;;;;;15.43;6.35;;;-4.20;32.50;;;;;;5067170;28;20204;-65
2024/01/09 18:32:19;;;;;;;11.73;6.03;;;-4.30;32.50;;;;;;5057075;28;20315;-63
2024/01/09 18:34:46;;;;;;;10.50;6.70;;;-4.40;32.40;;;;;;5074117;28;20588;-66
2024/01/09 18:37:13;;;;;;;23.17;6.80;;;-4.60;32.20;;;;;;5073320;28;20200;-67
2024/01/09 18:39:41;;;;;;;11.57;6.47;;;-4.60;32.50;;;;;;5073180;28;20580;-65
2024/01/09 18:42:08;;;;;;;11.65;6.15;;;-4.50;33.20;;;;;;5072850;28;20314;-65
2024/01/09 18:44:35;;;;;;;9.57;4.38;;;-4.60;32.80;;;;;;5044383;28;20207;-65
2024/01/09 18:47:04;;;;;;;12.73;5.22;;;-4.50;33.40;;;;;;5067404;28;20206;-64
2024/01/09 18:49:30;;;;;;;10.23;5.32;;;-4.50;32.40;;;;;;5073527;28;20207;-66
2024/01/09 18:51:58;;;;;;;12.88;4.03;;;-4.50;32.50;;;;;;5073213;28;20226;-66
2024/01/09 18:54:25;;;;;;;12.18;6.00;;;-4.50;33.90;;;;;;5070471;28;20714;-65
2024/01/09 18:56:51;;;;;;;12.38;4.57;;;-4.60;33.80;;;;;;5057200;28;20196;-66
2024/01/09 18:59:18;;;;;;;12.27;5.95;;;-4.50;36.60;;;;;;5055098;28;20201;-65
2024/01/09 19:01:45;;;;;;;14.05;7.93;;;-4.40;32.50;;;;;;5052974;28;20287;-65
2024/01/09 19:04:14;;;;;;;28.90;11.52;;;-4.30;32.50;;;;;;5050935;28;20197;-65
2024/01/09 19:06:41;;;;;;;18.48;9.32;;;-4.20;33.50;;;;;;5064266;28;20200;-66
2024/01/09 19:09:11;;;;;;;26.65;10.90;;;-4.10;32.70;;;;;;5071761;28;20195;-66
2024/01/09 19:11:38;;;;;;;18.33;8.93;;;-4.20;32.60;;;;;;5071820;28;20207;-65
2024/01/09 19:14:08;;;;;;;33.75;15.82;;;-4.50;32.30;;;;;;5071194;28;20227;-65
2024/01/09 19:16:34;;;;;;;25.98;9.98;;;-4.10;32.60;;;;;;5071105;28;20297;-66
2024/01/09 19:19:01;;;;;;;8.73;6.50;;;-4.00;32.70;;;;;;5071407;28;20229;-65
2024/01/09 19:21:29;;;;;;;18.95;9.38;;;-4.10;37.40;;;;;;5069162;28;20200;-65
2024/01/09 19:23:56;;;;;;;15.20;7.15;;;-4.20;37.40;;;;;;5058112;28;20200;-65
2024/01/09 19:26:31;;;;;;;15.00;7.03;;;-4.30;38.30;;;;;;5053418;28;20201;-65
2024/01/09 19:28:58;;;;;;;10.63;5.47;;;-4.10;32.60;;;;;;5071111;28;20207;-64
2024/01/09 19:31:25;;;;;;;12.57;6.28;;;-4.00;32.70;;;;;;5071578;28;20205;-65
2024/01/09 19:33:51;;;;;;;14.43;7.78;;;-3.90;32.80;;;;;;5065791;28;20220;-65
2024/01/09 19:36:18;;;;;;;11.48;4.28;;;-4.00;32.70;;;;;;5050950;28;20207;-65
2024/01/09 19:38:46;;;;;;;10.68;5.03;;;-3.90;32.80;;;;;;5064569;28;20199;-66
2024/01/09 19:41:16;;;;;;;17.10;7.65;;;-3.80;32.80;;;;;;5054253;28;20210;-65
2024/01/09 19:43:44;;;;;;;14.23;6.18;;;-3.90;32.80;;;;;;5058123;28;20219;-65
2024/01/09 19:46:11;;;;;;;8.13;4.35;;;-3.80;32.90;;;;;;5050317;28;20216;-65
2024/01/09 19:48:37;;;;;;;12.80;6.40;;;-3.80;32.80;;;;;;5071219;28;20200;-65
2024/01/09 19:51:06;;;;;;;9.48;5.25;;;-3.70;32.90;;;;;;5071110;28;20196;-65
2024/01/09 19:53:33;;;;;;;13.30;6.07;;;-3.80;32.80;;;;;;5070568;28;20285;-65
2024/01/09 19:56:01;;;;;;;14.20;6.78;;;-3.80;32.80;;;;;;5071784;28;20226;-65
2024/01/09 19:58:27;;;;;;;10.85;5.75;;;-3.80;32.90;;;;;;5071892;28;20559;-64
2024/01/09 20:00:54;;;;;;;9.55;5.32;;;-3.80;32.80;;;;;;5057505;28;20629;-65
2024/01/09 20:03:21;;;;;;;9.57;6.07;;;-3.80;32.80;;;;;;5069936;28;20683;-65
2024/01/09 20:05:48;;;;;;;12.73;7.05;;;-3.90;32.80;;;;;;5065882;28;20201;-61
2024/01/09 20:08:15;;;;;;;11.25;6.18;;;-4.00;32.70;;;;;;5059591;28;20200;-65
2024/01/09 20:10:42;;;;;;;16.52;7.30;;;-3.90;32.80;;;;;;5056056;28;20211;-65
2024/01/09 20:13:10;;;;;;;26.35;6.55;;;-4.00;32.70;;;;;;5071298;28;20738;-65
2024/01/09 20:15:37;;;;;;;14.68;6.25;;;-4.00;32.70;;;;;;5071874;28;20223;-65
2024/01/09 20:18:04;;;;;;;11.02;6.05;;;-4.10;32.60;;;;;;5071427;28;20204;-65
2024/01/09 20:20:31;;;;;;;6.93;3.65;;;-4.10;32.60;;;;;;5068489;28;20205;-63
2024/01/09 20:22:58;;;;;;;13.48;6.57;;;-4.10;32.60;;;;;;5057542;28;20286;-66
2024/01/09 20:25:25;;;;;;;14.65;6.53;;;-4.10;32.60;;;;;;5071533;28;20207;-65
2024/01/09 20:27:52;;;;;;;13.75;7.13;;;-4.10;32.60;;;;;;5064600;28;20294;-66
2024/01/09 20:30:20;;;;;;;18.15;7.22;;;-4.20;32.50;;;;;;5060802;28;20207;-65
2024/01/09 20:32:47;;;;;;;17.27;8.65;;;-4.30;32.50;;;;;;5071628;28;20228;-64
2024/01/09 20:35:14;;;;;;;12.75;6.07;;;-4.40;32.40;;;;;;5071152;28;20309;-65
2024/01/09 20:37:41;;;;;;;10.00;5.13;;;-4.30;32.50;;;;;;5058895;28;20554;-65
2024/01/09 20:40:10;;;;;;;18.00;8.68;;;-4.60;32.20;;;;;;5060885;28;20226;-64
2024/01/09 20:42:37;;;;;;;10.75;5.90;;;-4.20;32.50;;;;;;5047391;28;20300;-65
2024/01/09 20:45:05;;;;;;;14.38;7.13;;;-4.10;32.70;;;;;;5054368;28;20201;-65
2024/01/09 20:47:33;;;;;;;9.45;4.68;;;-4.30;32.50;;;;;;5063092;28;20291;-63
2024/01/09 20:50:01;;;;;;;14.18;8.55;;;-4.50;35.70;;;;;;5054015;28;20208;-65
2024/01/09 20:52:27;;;;;;;14.73;7.68;;;-4.60;36.60;;;;;;5057478;28;20308;-66
2024/01/09 20:54:54;;;;;;;15.25;8.35;;;-4.80;40.70;;;;;;5074923;28;20227;-65
2024/01/09 20:57:21;;;;;;;17.30;8.43;;;-5.20;41.60;;;;;;5074985;28;20212;-65
2024/01/09 20:59:48;;;;;;;17.70;7.82;;;-5.10;47.30;;;;;;5069629;28;20207;-66
2024/01/09 21:02:18;;;;;;;16.05;8.35;;;-5.20;48.70;;;;;;5054583;28;20251;-65
2024/01/09 21:04:46;;;;;;;15.40;9.88;;;-5.70;48.30;;;;;;5054830;28;20223;-65
2024/01/09 21:07:13;;;;;;;14.13;7.28;;;-5.70;48.30;;;;;;5062488;28;20214;-65
2024/01/09 21:09:40;;;;;;;20.98;7.60;;;-5.60;48.40;;;;;;5066692;28;20204;-64
2024/01/09 21:12:07;;;;;;;16.25;7.85;;;-5.70;48.40;;;;;;5067291;28;20278;-65
2024/01/09 21:14:34;;;;;;;19.40;8.15;;;-5.60;48.50;;;;;;5065264;28;20268;-65
2024/01/09 21:17:01;;;;;;;15.27;8.02;;;-5.80;48.30;;;;;;5073453;28;20258;-65
2024/01/09 21:19:28;;;;;;;19.65;8.25;;;-5.90;52.10;;;;;;5073312;28;20682;-65
2024/01/09 21:21:56;;;;;;;16.15;7.40;;;-5.90;53.20;;;;;;5074136;28;20714;-65
2024/01/09 21:24:22;;;;;;;13.60;7.40;;;-6.00;55.00;;;;;;5057822;28;20198;-64
2024/01/09 21:26:49;;;;;;;18.88;7.72;;;-6.00;56.40;;;;;;5073312;28;20204;-65
2024/01/09 21:29:16;;;;;;;18.13;8.15;;;-6.10;56.30;;;;;;5073721;28;20203;-65
2024/01/09 21:31:43;;;;;;;14.02;8.43;;;-6.10;62.10;;;;;;5074109;28;20206;-65
2024/01/09 21:34:09;;;;;;;17.25;9.02;;;-6.20;58.50;;;;;;5057580;28;20202;-66
2024/01/09 21:36:40;;;;;;;17.75;9.48;;;-6.30;63.80;;;;;;5065775;28;20223;-64
2024/01/09 21:39:08;;;;;;;19.35;9.05;;;-6.30;64.10;;;;;;5058276;28;20671;-65
2024/01/09 21:41:35;;;;;;;14.88;8.65;;;-6.30;64.10;;;;;;5065906;28;20300;-65
2024/01/09 21:44:01;;;;;;;17.50;9.13;;;-6.30;64.10;;;;;;5058822;28;20201;-65
2024/01/09 21:46:27;;;;;;;14.70;9.43;;;-6.40;64.00;;;;;;5072894;28;20284;-65
2024/01/09 21:48:54;;;;;;;16.92;10.00;;;-6.30;64.10;;;;;;5059182;28;20206;-64
2024/01/09 21:51:21;;;;;;;25.17;10.23;;;-6.40;64.00;;;;;;5071701;28;20203;-64
2024/01/09 21:53:48;;;;;;;11.05;6.60;;;-6.30;64.10;;;;;;5068616;28;20325;-65
2024/01/09 21:56:16;;;;;;;15.20;6.53;;;-6.10;64.30;;;;;;5063010;28;20232;-65
2024/01/09 21:58:43;;;;;;;16.48;9.38;;;-5.90;64.40;;;;;;5073640;28;20207;-65
2024/01/09 22:01:09;;;;;;;19.77;9.23;;;-5.90;60.60;;;;;;5074182;28;20210;-65
2024/01/09 22:03:36;;;;;;;12.88;6.82;;;-6.00;64.20;;;;;;5070049;28;20221;-65
2024/01/09 22:06:03;;;;;;;21.48;9.43;;;-5.80;64.50;;;;;;5053801;28;20191;-64
2024/01/09 22:08:30;;;;;;;14.82;8.90;;;-5.80;64.40;;;;;;5061902;28;20212;-64
2024/01/09 22:10:57;;;;;;;18.65;8.13;;;-6.10;64.20;;;;;;5060383;28;20212;-65
2024/01/09 22:13:25;;;;;;;17.70;9.20;;;-6.10;64.30;;;;;;5056930;28;20231;-65
2024/01/09 22:15:52;;;;;;;16.27;8.60;;;-6.20;64.20;;;;;;5073485;28;20225;-65
2024/01/09 22:18:19;;;;;;;17.40;9.90;;;-6.20;64.20;;;;;;5063959;28;20204;-67
2024/01/09 22:20:46;;;;;;;16.15;9.57;;;-6.10;64.30;;;;;;5066598;28;20203;-67
2024/01/09 22:23:13;;;;;;;17.42;8.43;;;-6.20;64.20;;;;;;5073278;28;20219;-65
2024/01/09 22:25:40;;;;;;;15.07;7.05;;;-6.20;64.20;;;;;;5060808;28;20202;-65
2024/01/09 22:28:07;;;;;;;14.93;8.80;;;-6.00;64.40;;;;;;5069427;28;20206;-65
2024/01/09 22:30:35;;;;;;;14.63;8.32;;;-5.60;64.70;;;;;;5061636;28;20200;-65
2024/01/09 22:33:04;;;;;;;14.00;8.60;;;-5.90;64.40;;;;;;5068570;28;20271;-65
2024/01/09 22:35:31;;;;;;;22.50;8.95;;;-5.80;64.50;;;;;;5056431;28;20719;-65
2024/01/09 22:37:58;;;;;;;8.80;4.55;;;-5.80;64.50;;;;;;5057910;28;20665;-65
2024/01/09 22:40:25;;;;;;;14.55;6.88;;;-5.80;64.50;;;;;;5071813;28;20586;-65
2024/01/09 22:42:52;;;;;;;16.77;8.77;;;-5.90;64.40;;;;;;5067464;28;20225;-64
2024/01/09 22:45:18;;;;;;;17.27;8.38;;;-6.00;64.40;;;;;;5062617;28;20224;-65
2024/01/09 22:47:46;;;;;;;17.40;9.45;;;-6.00;64.40;;;;;;5072775;28;20207;-65
2024/01/09 22:50:13;;;;;;;19.00;9.50;;;-6.00;64.40;;;;;;5072774;28;20204;-66
2024/01/09 22:52:40;;;;;;;17.67;8.52;;;-6.20;64.20;;;;;;5068549;28;20224;-64
2024/01/09 22:55:07;;;;;;;13.35;7.90;;;-6.30;64.10;;;;;;5052963;28;20212;-65
2024/01/09 22:57:34;;;;;;;19.52;9.15;;;-6.30;68.10;;;;;;5064072;28;20230;-66
2024/01/09 23:00:01;;;;;;;14.05;7.65;;;-6.30;67.40;;;;;;5072597;28;20201;-65
2024/01/09 23:02:27;;;;;;;9.52;4.90;;;-6.20;66.60;;;;;;5072479;28;20225;-65
2024/01/09 23:04:56;;;;;;;13.00;7.47;;;-5.90;64.40;;;;;;5058263;28;20201;-65
2024/01/09 23:07:22;;;;;;;19.08;9.02;;;-5.70;64.60;;;;;;5070672;28;20206;-65
2024/01/09 23:09:49;;;;;;;15.70;9.40;;;-5.70;64.60;;;;;;5072437;28;20212;-64
2024/01/09 23:12:16;;;;;;;17.63;7.90;;;-5.80;64.50;;;;;;5072328;28;20225;-65
2024/01/09 23:14:42;;;;;;;13.38;8.05;;;-5.80;64.50;;;;;;5059782;28;20216;-65
2024/01/09 23:17:09;;;;;;;15.50;9.60;;;-5.90;64.40;;;;;;5068554;28;20221;-65
2024/01/09 23:19:36;;;;;;;17.95;8.82;;;-5.90;64.40;;;;;;5055993;28;20202;-65
2024/01/09 23:22:04;;;;;;;16.92;9.63;;;-6.10;64.30;;;;;;5056587;28;20739;-65
2024/01/09 23:24:31;;;;;;;17.98;10.18;;;-6.20;64.20;;;;;;5071968;28;20198;-65
2024/01/09 23:26:58;;;;;;;16.42;9.10;;;-6.30;64.10;;;;;;5071987;28;20209;-64
2024/01/09 23:29:25;;;;;;;15.15;8.25;;;-6.50;64.00;;;;;;5054401;28;20205;-65
2024/01/09 23:31:51;;;;;;;20.90;9.93;;;-6.40;69.50;;;;;;5058266;28;20222;-65
2024/01/09 23:34:19;;;;;;;19.90;8.57;;;-6.50;70.80;;;;;;5060621;28;20198;-65
2024/01/09 23:36:46;;;;;;;19.10;8.10;;;-6.50;71.70;;;;;;5065167;28;20251;-65
2024/01/09 23:39:14;;;;;;;17.80;8.30;;;-6.40;71.80;;;;;;5072171;28;20595;-65
2024/01/09 23:41:41;;;;;;;17.88;9.57;;;-6.50;68.70;;;;;;5072124;28;20211;-63
2024/01/09 23:44:08;;;;;;;17.38;9.38;;;-6.50;71.00;;;;;;5072379;28;20294;-65
2024/01/09 23:46:35;;;;;;;27.35;8.98;;;-6.50;70.10;;;;;;5059730;28;20193;-64
2024/01/09 23:49:01;;;;;;;14.45;8.27;;;-6.60;71.60;;;;;;5060278;28;20556;-65
2024/01/09 23:51:28;;;;;;;17.02;10.23;;;-6.70;72.50;;;;;;5062907;28;20202;-65
2024/01/09 23:53:55;;;;;;;18.08;10.48;;;-6.70;79.00;;;;;;5071893;28;20674;-63
2024/01/09 23:56:23;;;;;;;16.85;8.82;;;-6.80;78.20;;;;;;5053208;28;20719;-65
2024/01/09 23:58:51;;;;;;;14.13;8.52;;;-6.80;78.90;;;;;;5057378;28;20200;-65
